sensor_id;sensor_type;location;lat;lon;timestamp;pressure;altitude;pressure_sealevel;temperature;humidity
550;BME280;20066;48.764;9.176;2022-08-21T00:00:34;98293.53;;;21.43;48.43
550;BME280;20066;48.764;9.176;2022-08-21T00:03:11;98293.53;;;21.52;47.95
550;BME280;20066;48.764;9.176;2022-08-21T00:05:41;98300.97;;;21.34;48.26
550;BME280;20066;48.764;9.176;2022-08-21T00:08:10;98289.88;;;21.37;48.41
550;BME280;20066;48.764;9.176;2022-08-21T00:10:38;98285.19;;;21.47;48.66
550;BME280;20066;48.764;9.176;2022-08-21T00:13:07;98291.25;;;21.42;48.67
550;BME280;20066;48.764;9.176;2022-08-21T00:15:36;98292.03;;;21.51;48.93
550;BME280;20066;48.764;9.176;2022-08-21T00:18:06;98287.50;;;21.08;49.79
550;BME280;20066;48.764;9.176;2022-08-21T00:20:34;98295.03;;;21.26;49.68
550;BME280;20066;48.764;9.176;2022-08-21T00:23:03;98285.38;;;21.12;50.30
550;BME280;20066;48.764;9.176;2022-08-21T00:25:33;98292.25;;;21.17;50.60
550;BME280;20066;48.764;9.176;2022-08-21T00:28:01;98288.06;;;20.94;50.87
550;BME280;20066;48.764;9.176;2022-08-21T00:30:29;98283.38;;;21.04;50.71
550;BME280;20066;48.764;9.176;2022-08-21T00:32:58;98284.91;;;21.05;50.43
550;BME280;20066;48.764;9.176;2022-08-21T00:35:28;98277.94;;;21.22;49.78
550;BME280;20066;48.764;9.176;2022-08-21T00:37:57;98281.91;;;21.21;49.97
550;BME280;20066;48.764;9.176;2022-08-21T00:40:29;98285.09;;;21.10;50.16
550;BME280;20066;48.764;9.176;2022-08-21T00:43:00;98287.16;;;20.97;50.63
550;BME280;20066;48.764;9.176;2022-08-21T00:45:29;98294.63;;;20.44;51.52
550;BME280;20066;48.764;9.176;2022-08-21T00:47:57;98286.13;;;20.20;52.23
550;BME280;20066;48.764;9.176;2022-08-21T00:50:29;98277.78;;;19.80;53.28
550;BME280;20066;48.764;9.176;2022-08-21T00:53:00;98279.78;;;20.23;52.35
550;BME280;20066;48.764;9.176;2022-08-21T00:55:30;98276.34;;;19.88;52.96
550;BME280;20066;48.764;9.176;2022-08-21T00:58:04;98278.38;;;19.97;54.10
550;BME280;20066;48.764;9.176;2022-08-21T01:00:39;98279.59;;;20.18;52.58
550;BME280;20066;48.764;9.176;2022-08-21T01:03:10;98275.56;;;20.31;52.03
550;BME280;20066;48.764;9.176;2022-08-21T01:05:40;98279.66;;;20.05;52.67
550;BME280;20066;48.764;9.176;2022-08-21T01:08:08;98276.97;;;20.14;52.38
550;BME280;20066;48.764;9.176;2022-08-21T01:10:37;98272.75;;;20.44;51.65
550;BME280;20066;48.764;9.176;2022-08-21T01:13:08;98274.84;;;20.62;51.30
550;BME280;20066;48.764;9.176;2022-08-21T01:15:39;98279.69;;;20.58;50.97
550;BME280;20066;48.764;9.176;2022-08-21T01:18:10;98275.50;;;20.44;51.37
550;BME280;20066;48.764;9.176;2022-08-21T01:20:43;98278.09;;;20.69;50.67
550;BME280;20066;48.764;9.176;2022-08-21T01:23:13;98275.41;;;20.57;50.96
550;BME280;20066;48.764;9.176;2022-08-21T01:25:41;98274.03;;;20.52;50.94
550;BME280;20066;48.764;9.176;2022-08-21T01:28:12;98281.94;;;20.07;51.47
550;BME280;20066;48.764;9.176;2022-08-21T01:30:42;98275.41;;;20.48;51.59
550;BME280;20066;48.764;9.176;2022-08-21T01:33:10;98275.56;;;20.53;50.43
550;BME280;20066;48.764;9.176;2022-08-21T01:35:38;98271.44;;;20.80;50.13
550;BME280;20066;48.764;9.176;2022-08-21T01:38:06;98275.41;;;20.79;50.21
550;BME280;20066;48.764;9.176;2022-08-21T01:40:35;98269.56;;;20.67;50.94
550;BME280;20066;48.764;9.176;2022-08-21T01:43:03;98268.59;;;20.30;51.25
550;BME280;20066;48.764;9.176;2022-08-21T01:45:31;98265.94;;;20.70;50.93
550;BME280;20066;48.764;9.176;2022-08-21T01:47:59;98265.75;;;20.65;51.04
550;BME280;20066;48.764;9.176;2022-08-21T01:50:26;98262.03;;;20.50;51.66
550;BME280;20066;48.764;9.176;2022-08-21T01:52:54;98264.78;;;20.28;51.92
550;BME280;20066;48.764;9.176;2022-08-21T01:55:22;98265.41;;;20.54;51.30
550;BME280;20066;48.764;9.176;2022-08-21T01:57:52;98260.75;;;20.42;51.15
550;BME280;20066;48.764;9.176;2022-08-21T02:00:21;98259.78;;;20.48;51.07
550;BME280;20066;48.764;9.176;2022-08-21T02:02:50;98250.78;;;20.26;51.66
550;BME280;20066;48.764;9.176;2022-08-21T02:05:19;98256.44;;;19.88;52.16
550;BME280;20066;48.764;9.176;2022-08-21T02:07:48;98249.22;;;20.16;51.51
550;BME280;20066;48.764;9.176;2022-08-21T02:10:19;98245.16;;;20.20;51.80
550;BME280;20066;48.764;9.176;2022-08-21T02:12:47;98248.75;;;20.39;51.39
550;BME280;20066;48.764;9.176;2022-08-21T02:15:17;98247.06;;;20.32;51.05
550;BME280;20066;48.764;9.176;2022-08-21T02:17:48;98243.50;;;20.23;51.94
550;BME280;20066;48.764;9.176;2022-08-21T02:20:19;98255.81;;;20.27;51.31
550;BME280;20066;48.764;9.176;2022-08-21T02:22:47;98246.06;;;20.17;51.91
550;BME280;20066;48.764;9.176;2022-08-21T02:25:16;98239.41;;;20.27;51.68
550;BME280;20066;48.764;9.176;2022-08-21T02:27:46;98246.59;;;20.34;51.56
550;BME280;20066;48.764;9.176;2022-08-21T02:30:17;98246.19;;;20.45;51.34
550;BME280;20066;48.764;9.176;2022-08-21T02:32:46;98245.59;;;20.41;51.20
550;BME280;20066;48.764;9.176;2022-08-21T02:35:14;98242.53;;;20.38;51.50
550;BME280;20066;48.764;9.176;2022-08-21T02:37:44;98245.00;;;20.46;51.67
550;BME280;20066;48.764;9.176;2022-08-21T02:40:12;98244.34;;;20.42;51.34
550;BME280;20066;48.764;9.176;2022-08-21T02:42:40;98243.63;;;20.19;51.93
550;BME280;20066;48.764;9.176;2022-08-21T02:45:11;98242.81;;;20.10;52.30
550;BME280;20066;48.764;9.176;2022-08-21T02:47:47;98240.31;;;20.24;52.24
550;BME280;20066;48.764;9.176;2022-08-21T02:50:18;98243.22;;;20.30;52.10
550;BME280;20066;48.764;9.176;2022-08-21T02:52:46;98241.25;;;20.30;52.01
550;BME280;20066;48.764;9.176;2022-08-21T02:55:21;98237.13;;;20.26;52.43
550;BME280;20066;48.764;9.176;2022-08-21T02:57:49;98243.81;;;20.03;52.36
550;BME280;20066;48.764;9.176;2022-08-21T03:00:19;98247.50;;;19.87;52.71
550;BME280;20066;48.764;9.176;2022-08-21T03:02:48;98246.63;;;19.69;53.67
550;BME280;20066;48.764;9.176;2022-08-21T03:05:17;98252.19;;;18.67;56.40
550;BME280;20066;48.764;9.176;2022-08-21T03:07:46;98251.13;;;18.90;55.85
550;BME280;20066;48.764;9.176;2022-08-21T03:10:15;98248.56;;;19.21;55.91
550;BME280;20066;48.764;9.176;2022-08-21T03:12:43;98247.31;;;19.47;54.56
550;BME280;20066;48.764;9.176;2022-08-21T03:15:13;98241.69;;;19.63;53.81
550;BME280;20066;48.764;9.176;2022-08-21T03:17:41;98247.38;;;19.56;54.43
550;BME280;20066;48.764;9.176;2022-08-21T03:20:12;98236.13;;;19.67;53.76
550;BME280;20066;48.764;9.176;2022-08-21T03:22:41;98242.44;;;19.77;53.69
550;BME280;20066;48.764;9.176;2022-08-21T03:25:19;98238.44;;;19.69;53.52
550;BME280;20066;48.764;9.176;2022-08-21T03:27:55;98254.66;;;19.38;54.14
550;BME280;20066;48.764;9.176;2022-08-21T03:30:25;98247.34;;;19.35;54.89
550;BME280;20066;48.764;9.176;2022-08-21T03:32:53;98253.03;;;19.40;54.43
550;BME280;20066;48.764;9.176;2022-08-21T03:35:24;98248.38;;;19.50;54.30
550;BME280;20066;48.764;9.176;2022-08-21T03:37:53;98254.75;;;19.47;54.42
550;BME280;20066;48.764;9.176;2022-08-21T03:40:22;98248.34;;;19.28;54.76
550;BME280;20066;48.764;9.176;2022-08-21T03:42:50;98250.72;;;19.39;54.39
550;BME280;20066;48.764;9.176;2022-08-21T03:45:19;98248.00;;;19.39;54.51
550;BME280;20066;48.764;9.176;2022-08-21T03:47:52;98250.31;;;19.28;54.67
550;BME280;20066;48.764;9.176;2022-08-21T03:50:20;98257.16;;;19.45;54.08
550;BME280;20066;48.764;9.176;2022-08-21T03:52:49;98258.81;;;19.30;54.09
550;BME280;20066;48.764;9.176;2022-08-21T03:55:17;98257.16;;;19.45;53.88
550;BME280;20066;48.764;9.176;2022-08-21T03:57:45;98264.84;;;19.12;54.75
550;BME280;20066;48.764;9.176;2022-08-21T04:00:14;98266.28;;;19.16;54.56
550;BME280;20066;48.764;9.176;2022-08-21T04:02:43;98265.72;;;18.71;55.79
550;BME280;20066;48.764;9.176;2022-08-21T04:05:12;98261.13;;;18.80;56.13
550;BME280;20066;48.764;9.176;2022-08-21T04:07:40;98263.09;;;19.05;55.38
550;BME280;20066;48.764;9.176;2022-08-21T04:10:12;98270.06;;;18.81;55.77
550;BME280;20066;48.764;9.176;2022-08-21T04:12:40;98269.44;;;18.77;55.95
550;BME280;20066;48.764;9.176;2022-08-21T04:15:08;98262.00;;;18.52;56.50
550;BME280;20066;48.764;9.176;2022-08-21T04:17:36;98267.22;;;18.72;55.90
550;BME280;20066;48.764;9.176;2022-08-21T04:20:04;98275.09;;;18.70;56.42
550;BME280;20066;48.764;9.176;2022-08-21T04:22:32;98274.88;;;17.94;57.91
550;BME280;20066;48.764;9.176;2022-08-21T04:25:00;98275.47;;;17.72;58.85
550;BME280;20066;48.764;9.176;2022-08-21T04:27:29;98284.22;;;18.09;58.05
550;BME280;20066;48.764;9.176;2022-08-21T04:29:57;98288.00;;;18.28;57.25
550;BME280;20066;48.764;9.176;2022-08-21T04:32:25;98290.56;;;18.06;57.90
550;BME280;20066;48.764;9.176;2022-08-21T04:34:58;98285.53;;;17.88;58.50
550;BME280;20066;48.764;9.176;2022-08-21T04:37:26;98297.28;;;18.01;58.26
550;BME280;20066;48.764;9.176;2022-08-21T04:39:54;98293.44;;;18.28;57.60
550;BME280;20066;48.764;9.176;2022-08-21T04:42:25;98296.13;;;18.15;57.84
550;BME280;20066;48.764;9.176;2022-08-21T04:44:55;98289.81;;;18.18;57.86
550;BME280;20066;48.764;9.176;2022-08-21T04:47:24;98305.13;;;18.41;57.75
550;BME280;20066;48.764;9.176;2022-08-21T04:50:12;98305.91;;;18.13;58.07
550;BME280;20066;48.764;9.176;2022-08-21T04:52:41;98299.22;;;17.40;60.19
550;BME280;20066;48.764;9.176;2022-08-21T04:55:09;98293.66;;;17.30;61.24
550;BME280;20066;48.764;9.176;2022-08-21T04:57:37;98306.19;;;17.57;60.47
550;BME280;20066;48.764;9.176;2022-08-21T05:00:16;98305.63;;;17.78;59.33
550;BME280;20066;48.764;9.176;2022-08-21T05:02:45;98307.84;;;17.83;59.43
550;BME280;20066;48.764;9.176;2022-08-21T05:05:15;98300.53;;;17.80;59.60
550;BME280;20066;48.764;9.176;2022-08-21T05:07:44;98305.53;;;17.98;58.73
550;BME280;20066;48.764;9.176;2022-08-21T05:10:13;98305.22;;;17.80;59.00
550;BME280;20066;48.764;9.176;2022-08-21T05:12:41;98297.75;;;17.67;59.58
550;BME280;20066;48.764;9.176;2022-08-21T05:15:11;98305.31;;;17.76;59.97
550;BME280;20066;48.764;9.176;2022-08-21T05:17:41;98310.06;;;17.72;59.31
550;BME280;20066;48.764;9.176;2022-08-21T05:20:18;98305.13;;;17.83;59.09
550;BME280;20066;48.764;9.176;2022-08-21T05:22:47;98317.38;;;18.20;58.38
550;BME280;20066;48.764;9.176;2022-08-21T05:25:15;98314.59;;;18.36;57.68
550;BME280;20066;48.764;9.176;2022-08-21T05:27:47;98325.84;;;18.51;56.78
550;BME280;20066;48.764;9.176;2022-08-21T05:30:18;98321.22;;;18.77;56.64
550;BME280;20066;48.764;9.176;2022-08-21T05:32:48;98317.84;;;19.11;56.11
550;BME280;20066;48.764;9.176;2022-08-21T05:35:16;98324.94;;;19.21;55.17
550;BME280;20066;48.764;9.176;2022-08-21T05:37:43;98324.50;;;19.22;55.39
550;BME280;20066;48.764;9.176;2022-08-21T05:40:12;98324.91;;;19.46;54.12
550;BME280;20066;48.764;9.176;2022-08-21T05:42:49;98323.78;;;19.56;53.33
550;BME280;20066;48.764;9.176;2022-08-21T05:45:22;98320.84;;;19.76;53.62
550;BME280;20066;48.764;9.176;2022-08-21T05:48:10;98323.59;;;19.98;52.42
550;BME280;20066;48.764;9.176;2022-08-21T05:50:39;98336.13;;;20.08;52.75
550;BME280;20066;48.764;9.176;2022-08-21T05:53:08;98326.91;;;20.15;52.28
550;BME280;20066;48.764;9.176;2022-08-21T05:55:38;98326.75;;;19.96;52.21
550;BME280;20066;48.764;9.176;2022-08-21T05:58:12;98330.75;;;20.17;52.91
550;BME280;20066;48.764;9.176;2022-08-21T06:00:39;98323.88;;;19.66;54.17
550;BME280;20066;48.764;9.176;2022-08-21T06:03:12;98331.16;;;18.83;56.50
550;BME280;20066;48.764;9.176;2022-08-21T06:05:42;98322.00;;;19.03;55.89
550;BME280;20066;48.764;9.176;2022-08-21T06:08:09;98323.25;;;19.61;54.26
550;BME280;20066;48.764;9.176;2022-08-21T06:10:38;98323.25;;;19.61;54.13
550;BME280;20066;48.764;9.176;2022-08-21T06:13:05;98317.59;;;19.69;54.11
550;BME280;20066;48.764;9.176;2022-08-21T06:15:34;98323.75;;;20.16;54.06
550;BME280;20066;48.764;9.176;2022-08-21T06:18:02;98325.03;;;19.90;53.54
550;BME280;20066;48.764;9.176;2022-08-21T06:20:31;98324.47;;;19.95;54.20
550;BME280;20066;48.764;9.176;2022-08-21T06:22:59;98322.72;;;19.67;55.09
550;BME280;20066;48.764;9.176;2022-08-21T06:25:27;98320.09;;;19.63;54.72
550;BME280;20066;48.764;9.176;2022-08-21T06:28:01;98331.03;;;19.97;54.27
550;BME280;20066;48.764;9.176;2022-08-21T06:30:29;98330.59;;;19.99;54.02
550;BME280;20066;48.764;9.176;2022-08-21T06:32:57;98326.31;;;19.98;53.95
550;BME280;20066;48.764;9.176;2022-08-21T06:35:25;98326.56;;;20.47;52.94
550;BME280;20066;48.764;9.176;2022-08-21T06:37:57;98323.44;;;20.89;52.06
550;BME280;20066;48.764;9.176;2022-08-21T06:40:26;98318.94;;;21.04;51.55
550;BME280;20066;48.764;9.176;2022-08-21T06:42:55;98316.19;;;21.04;50.69
550;BME280;20066;48.764;9.176;2022-08-21T06:45:24;98325.47;;;21.46;49.69
550;BME280;20066;48.764;9.176;2022-08-21T06:47:57;98313.19;;;21.69;49.79
550;BME280;20066;48.764;9.176;2022-08-21T06:50:25;98319.00;;;21.80;47.97
550;BME280;20066;48.764;9.176;2022-08-21T06:52:59;98313.53;;;21.80;49.21
550;BME280;20066;48.764;9.176;2022-08-21T06:55:27;98314.88;;;21.94;48.85
550;BME280;20066;48.764;9.176;2022-08-21T06:57:55;98316.41;;;21.77;48.87
550;BME280;20066;48.764;9.176;2022-08-21T07:00:23;98316.88;;;22.12;46.93
550;BME280;20066;48.764;9.176;2022-08-21T07:02:51;98316.09;;;22.20;47.55
550;BME280;20066;48.764;9.176;2022-08-21T07:05:19;98313.78;;;21.73;47.29
550;BME280;20066;48.764;9.176;2022-08-21T07:07:47;98308.78;;;21.90;47.04
550;BME280;20066;48.764;9.176;2022-08-21T07:10:17;98310.00;;;21.89;46.78
550;BME280;20066;48.764;9.176;2022-08-21T07:12:48;98305.63;;;22.19;45.97
550;BME280;20066;48.764;9.176;2022-08-21T07:15:27;98304.53;;;22.35;45.84
550;BME280;20066;48.764;9.176;2022-08-21T07:17:56;98310.88;;;21.59;47.46
550;BME280;20066;48.764;9.176;2022-08-21T07:20:25;98310.78;;;21.99;46.52
550;BME280;20066;48.764;9.176;2022-08-21T07:22:54;98313.91;;;22.70;45.43
550;BME280;20066;48.764;9.176;2022-08-21T07:25:23;98302.69;;;22.32;45.76
550;BME280;20066;48.764;9.176;2022-08-21T07:27:51;98307.34;;;21.31;47.93
550;BME280;20066;48.764;9.176;2022-08-21T07:30:19;98304.66;;;21.58;47.87
550;BME280;20066;48.764;9.176;2022-08-21T07:32:47;98301.16;;;22.40;45.91
550;BME280;20066;48.764;9.176;2022-08-21T07:35:16;98304.78;;;24.01;43.52
550;BME280;20066;48.764;9.176;2022-08-21T07:37:45;98299.94;;;24.49;41.09
550;BME280;20066;48.764;9.176;2022-08-21T07:40:14;98297.53;;;25.77;39.39
550;BME280;20066;48.764;9.176;2022-08-21T07:42:44;98292.03;;;27.11;36.27
550;BME280;20066;48.764;9.176;2022-08-21T07:45:14;98302.38;;;27.65;35.83
550;BME280;20066;48.764;9.176;2022-08-21T07:47:42;98305.28;;;26.70;38.12
550;BME280;20066;48.764;9.176;2022-08-21T07:50:12;98301.72;;;26.38;37.87
550;BME280;20066;48.764;9.176;2022-08-21T07:52:41;98304.78;;;26.46;36.65
550;BME280;20066;48.764;9.176;2022-08-21T07:55:12;98305.59;;;27.57;36.85
550;BME280;20066;48.764;9.176;2022-08-21T07:57:41;98296.97;;;26.13;37.52
550;BME280;20066;48.764;9.176;2022-08-21T08:00:13;98289.47;;;26.14;37.63
550;BME280;20066;48.764;9.176;2022-08-21T08:02:44;98294.50;;;28.00;33.69
550;BME280;20066;48.764;9.176;2022-08-21T08:05:12;98289.16;;;26.95;35.88
550;BME280;20066;48.764;9.176;2022-08-21T08:07:40;98296.97;;;27.39;34.52
550;BME280;20066;48.764;9.176;2022-08-21T08:10:09;98293.97;;;29.46;31.89
550;BME280;20066;48.764;9.176;2022-08-21T08:12:40;98297.22;;;29.62;32.84
550;BME280;20066;48.764;9.176;2022-08-21T08:15:12;98284.97;;;29.93;30.56
550;BME280;20066;48.764;9.176;2022-08-21T08:17:40;98285.56;;;26.83;35.42
550;BME280;20066;48.764;9.176;2022-08-21T08:20:14;98281.31;;;26.88;36.04
550;BME280;20066;48.764;9.176;2022-08-21T08:22:42;98275.53;;;26.02;38.21
550;BME280;20066;48.764;9.176;2022-08-21T08:25:17;98285.38;;;27.88;34.82
550;BME280;20066;48.764;9.176;2022-08-21T08:27:45;98275.78;;;26.56;35.06
550;BME280;20066;48.764;9.176;2022-08-21T08:30:17;98273.06;;;27.89;33.34
550;BME280;20066;48.764;9.176;2022-08-21T08:32:46;98275.63;;;29.90;30.36
550;BME280;20066;48.764;9.176;2022-08-21T08:35:14;98275.25;;;29.69;29.15
550;BME280;20066;48.764;9.176;2022-08-21T08:37:43;98274.13;;;31.87;28.02
550;BME280;20066;48.764;9.176;2022-08-21T08:40:20;98273.59;;;31.64;26.42
550;BME280;20066;48.764;9.176;2022-08-21T08:42:51;98274.00;;;32.11;26.84
550;BME280;20066;48.764;9.176;2022-08-21T08:45:22;98264.31;;;32.50;26.49
550;BME280;20066;48.764;9.176;2022-08-21T08:47:56;98264.66;;;33.05;25.24
550;BME280;20066;48.764;9.176;2022-08-21T08:50:33;98258.31;;;31.77;27.12
550;BME280;20066;48.764;9.176;2022-08-21T08:53:10;98263.38;;;31.54;27.66
550;BME280;20066;48.764;9.176;2022-08-21T08:55:41;98263.72;;;32.25;26.33
550;BME280;20066;48.764;9.176;2022-08-21T08:58:14;98254.41;;;29.46;29.08
550;BME280;20066;48.764;9.176;2022-08-21T09:00:48;98248.03;;;30.09;29.50
550;BME280;20066;48.764;9.176;2022-08-21T09:03:18;98248.19;;;27.95;32.01
550;BME280;20066;48.764;9.176;2022-08-21T09:05:49;98249.50;;;28.78;31.95
550;BME280;20066;48.764;9.176;2022-08-21T09:08:43;98248.81;;;29.52;30.70
550;BME280;20066;48.764;9.176;2022-08-21T09:11:22;98245.44;;;29.06;29.80
550;BME280;20066;48.764;9.176;2022-08-21T09:14:01;98247.53;;;31.00;27.74
550;BME280;20066;48.764;9.176;2022-08-21T09:16:40;98237.13;;;29.01;29.60
550;BME280;20066;48.764;9.176;2022-08-21T09:19:27;98248.63;;;27.77;31.42
550;BME280;20066;48.764;9.176;2022-08-21T09:22:06;98244.59;;;30.33;28.10
550;BME280;20066;48.764;9.176;2022-08-21T09:24:43;98243.53;;;30.00;29.59
550;BME280;20066;48.764;9.176;2022-08-21T09:27:19;98235.66;;;28.33;31.43
550;BME280;20066;48.764;9.176;2022-08-21T09:29:52;98235.88;;;28.91;29.64
550;BME280;20066;48.764;9.176;2022-08-21T09:32:24;98231.06;;;29.77;30.03
550;BME280;20066;48.764;9.176;2022-08-21T09:35:10;98230.66;;;30.03;28.84
550;BME280;20066;48.764;9.176;2022-08-21T09:37:49;98233.13;;;28.13;31.72
550;BME280;20066;48.764;9.176;2022-08-21T09:40:25;98225.50;;;29.82;31.38
550;BME280;20066;48.764;9.176;2022-08-21T09:42:59;98224.78;;;28.96;31.18
550;BME280;20066;48.764;9.176;2022-08-21T09:45:28;98228.09;;;28.33;33.22
550;BME280;20066;48.764;9.176;2022-08-21T09:48:11;98223.19;;;26.34;35.14
550;BME280;20066;48.764;9.176;2022-08-21T09:50:40;98219.25;;;30.12;29.45
550;BME280;20066;48.764;9.176;2022-08-21T09:53:17;98222.69;;;29.25;30.69
550;BME280;20066;48.764;9.176;2022-08-21T09:55:52;98210.50;;;26.84;33.63
550;BME280;20066;48.764;9.176;2022-08-21T09:58:42;98211.72;;;27.20;33.97
550;BME280;20066;48.764;9.176;2022-08-21T10:01:14;98217.47;;;27.76;31.51
550;BME280;20066;48.764;9.176;2022-08-21T10:03:45;98225.75;;;27.82;32.36
550;BME280;20066;48.764;9.176;2022-08-21T10:06:22;98213.88;;;27.53;32.56
550;BME280;20066;48.764;9.176;2022-08-21T10:08:50;98216.72;;;29.73;29.76
550;BME280;20066;48.764;9.176;2022-08-21T10:11:25;98208.66;;;29.12;29.72
550;BME280;20066;48.764;9.176;2022-08-21T10:13:59;98216.75;;;27.87;31.27
550;BME280;20066;48.764;9.176;2022-08-21T10:16:38;98205.19;;;28.33;30.91
550;BME280;20066;48.764;9.176;2022-08-21T10:19:17;98200.19;;;29.45;29.97
550;BME280;20066;48.764;9.176;2022-08-21T10:21:59;98201.16;;;27.95;31.39
550;BME280;20066;48.764;9.176;2022-08-21T10:24:31;98206.72;;;28.17;31.25
550;BME280;20066;48.764;9.176;2022-08-21T10:27:14;98198.69;;;29.91;29.50
550;BME280;20066;48.764;9.176;2022-08-21T10:29:49;98195.63;;;29.59;29.41
550;BME280;20066;48.764;9.176;2022-08-21T10:32:37;98193.13;;;30.32;28.44
550;BME280;20066;48.764;9.176;2022-08-21T10:35:14;98192.88;;;30.84;27.25
550;BME280;20066;48.764;9.176;2022-08-21T10:37:56;98190.84;;;31.09;27.50
550;BME280;20066;48.764;9.176;2022-08-21T10:40:31;98185.72;;;30.70;27.89
550;BME280;20066;48.764;9.176;2022-08-21T10:43:16;98188.72;;;31.58;26.05
550;BME280;20066;48.764;9.176;2022-08-21T10:45:55;98187.81;;;31.68;26.02
550;BME280;20066;48.764;9.176;2022-08-21T10:48:33;98175.41;;;30.89;27.41
550;BME280;20066;48.764;9.176;2022-08-21T10:51:10;98179.06;;;30.48;26.65
550;BME280;20066;48.764;9.176;2022-08-21T10:53:57;98184.00;;;32.80;25.74
550;BME280;20066;48.764;9.176;2022-08-21T10:56:30;98184.75;;;32.04;25.53
550;BME280;20066;48.764;9.176;2022-08-21T10:59:11;98168.59;;;30.60;26.82
550;BME280;20066;48.764;9.176;2022-08-21T11:01:48;98164.88;;;30.82;28.66
550;BME280;20066;48.764;9.176;2022-08-21T11:04:21;98172.13;;;31.09;27.67
550;BME280;20066;48.764;9.176;2022-08-21T11:07:18;98173.38;;;32.92;26.98
550;BME280;20066;48.764;9.176;2022-08-21T11:09:48;98171.25;;;35.11;22.15
550;BME280;20066;48.764;9.176;2022-08-21T11:12:24;98173.84;;;37.75;19.41
550;BME280;20066;48.764;9.176;2022-08-21T11:14:58;98178.13;;;39.72;17.12
550;BME280;20066;48.764;9.176;2022-08-21T11:17:32;98166.81;;;39.62;17.47
550;BME280;20066;48.764;9.176;2022-08-21T11:20:06;98171.25;;;39.38;17.60
550;BME280;20066;48.764;9.176;2022-08-21T11:22:46;98171.28;;;39.21;18.60
550;BME280;20066;48.764;9.176;2022-08-21T11:25:34;98154.66;;;34.08;22.63
550;BME280;20066;48.764;9.176;2022-08-21T11:28:08;98142.63;;;29.98;28.26
550;BME280;20066;48.764;9.176;2022-08-21T11:30:47;98143.81;;;30.68;29.00
550;BME280;20066;48.764;9.176;2022-08-21T11:33:30;98149.56;;;30.45;27.39
550;BME280;20066;48.764;9.176;2022-08-21T11:36:09;98142.59;;;33.11;24.77
550;BME280;20066;48.764;9.176;2022-08-21T11:38:41;98150.03;;;32.95;24.12
550;BME280;20066;48.764;9.176;2022-08-21T11:41:28;98135.72;;;29.80;27.59
550;BME280;20066;48.764;9.176;2022-08-21T11:44:04;98143.34;;;32.59;25.59
550;BME280;20066;48.764;9.176;2022-08-21T11:46:44;98148.00;;;31.92;25.26
550;BME280;20066;48.764;9.176;2022-08-21T11:49:24;98139.94;;;29.86;27.68
550;BME280;20066;48.764;9.176;2022-08-21T11:52:05;98139.94;;;30.76;27.05
550;BME280;20066;48.764;9.176;2022-08-21T11:54:39;98135.72;;;34.63;23.81
550;BME280;20066;48.764;9.176;2022-08-21T11:57:16;98136.97;;;38.21;20.62
550;BME280;20066;48.764;9.176;2022-08-21T11:59:47;98139.81;;;36.38;20.40
550;BME280;20066;48.764;9.176;2022-08-21T12:02:19;98130.50;;;32.56;24.33
550;BME280;20066;48.764;9.176;2022-08-21T12:04:54;98130.94;;;31.32;25.84
550;BME280;20066;48.764;9.176;2022-08-21T12:07:35;98140.13;;;31.59;25.93
550;BME280;20066;48.764;9.176;2022-08-21T12:10:09;98142.25;;;31.15;25.74
550;BME280;20066;48.764;9.176;2022-08-21T12:12:39;98134.97;;;33.24;23.04
550;BME280;20066;48.764;9.176;2022-08-21T12:15:25;98130.91;;;33.26;23.89
550;BME280;20066;48.764;9.176;2022-08-21T12:20:34;98134.13;;;37.71;19.96
550;BME280;20066;48.764;9.176;2022-08-21T12:23:05;98130.50;;;40.58;16.14
550;BME280;20066;48.764;9.176;2022-08-21T12:25:47;98139.53;;;41.53;15.24
550;BME280;20066;48.764;9.176;2022-08-21T12:28:22;98132.00;;;41.36;15.30
550;BME280;20066;48.764;9.176;2022-08-21T12:30:50;98129.97;;;46.61;11.67
550;BME280;20066;48.764;9.176;2022-08-21T12:33:26;98112.53;;;40.63;15.72
550;BME280;20066;48.764;9.176;2022-08-21T12:36:03;98108.53;;;37.67;17.71
550;BME280;20066;48.764;9.176;2022-08-21T12:38:39;98114.78;;;37.83;18.06
550;BME280;20066;48.764;9.176;2022-08-21T12:41:16;98105.03;;;36.56;18.94
550;BME280;20066;48.764;9.176;2022-08-21T12:43:47;98092.72;;;38.04;18.89
550;BME280;20066;48.764;9.176;2022-08-21T12:46:22;98092.00;;;36.29;19.41
550;BME280;20066;48.764;9.176;2022-08-21T12:48:55;98097.78;;;33.77;23.75
550;BME280;20066;48.764;9.176;2022-08-21T12:51:29;98094.28;;;37.33;18.14
550;BME280;20066;48.764;9.176;2022-08-21T12:53:59;98093.28;;;35.90;22.08
550;BME280;20066;48.764;9.176;2022-08-21T12:56:30;98102.38;;;36.74;19.25
550;BME280;20066;48.764;9.176;2022-08-21T12:59:02;98100.13;;;36.72;18.83
550;BME280;20066;48.764;9.176;2022-08-21T13:01:33;98094.03;;;35.98;19.03
550;BME280;20066;48.764;9.176;2022-08-21T13:04:10;98090.97;;;33.85;21.85
550;BME280;20066;48.764;9.176;2022-08-21T13:06:41;98091.66;;;33.44;22.28
550;BME280;20066;48.764;9.176;2022-08-21T13:09:12;98082.78;;;30.56;25.77
550;BME280;20066;48.764;9.176;2022-08-21T13:11:45;98086.41;;;32.67;23.62
550;BME280;20066;48.764;9.176;2022-08-21T13:14:24;98084.78;;;34.28;20.55
550;BME280;20066;48.764;9.176;2022-08-21T13:16:54;98084.78;;;34.85;20.04
550;BME280;20066;48.764;9.176;2022-08-21T13:19:22;98089.53;;;35.13;20.36
550;BME280;20066;48.764;9.176;2022-08-21T13:21:52;98078.91;;;31.08;25.36
550;BME280;20066;48.764;9.176;2022-08-21T13:24:23;98086.75;;;32.37;24.24
550;BME280;20066;48.764;9.176;2022-08-21T13:27:22;98086.44;;;32.54;23.36
550;BME280;20066;48.764;9.176;2022-08-21T13:30:05;98081.38;;;33.73;22.11
550;BME280;20066;48.764;9.176;2022-08-21T13:32:35;98081.56;;;31.70;23.86
550;BME280;20066;48.764;9.176;2022-08-21T13:35:16;98074.59;;;28.57;28.03
550;BME280;20066;48.764;9.176;2022-08-21T13:37:48;98068.00;;;29.64;27.51
550;BME280;20066;48.764;9.176;2022-08-21T13:40:20;98067.63;;;30.09;26.63
550;BME280;20066;48.764;9.176;2022-08-21T13:42:51;98070.78;;;32.77;23.04
550;BME280;20066;48.764;9.176;2022-08-21T13:45:24;98067.78;;;35.19;20.50
550;BME280;20066;48.764;9.176;2022-08-21T13:47:53;98078.09;;;36.46;19.33
550;BME280;20066;48.764;9.176;2022-08-21T13:50:22;98067.78;;;37.76;17.95